Accueil
METAR-TAF:

METAR-TAF

Aéroports :

Aéroport international Antonio-B.-Won-Pat de Guam

Hagåtña, Guam, États-Unis

latitude: 13-29N, longitude: 144-48E, altitude: 91 m

Observation

Le bulletin a été fait il y a 57 minutes, à 20:54 UTC
Vent 3 kt de est
Température 27°C
Humidité 100%
Pression 1009 hPa
Visibilité: 16.1 km
Ciel clair

METAR: PGUM 212054Z 09003KT 10SM CLR 27/27 A2981 RMK AO2 SLP085 T02720272 53016 $

Heure: 07:51 (21:51 UTC)

Prévision

Le bulletin a été fait il y a 4 heures et 31 minutes, à 17:20 UTC
Prévision valable du 21 à 18 UTC au 22 à 24 UTC
Vent 7 kt de sud-est
Visibilité: 10 km
Quelques nuages à une hauteur de 1800 ft
Nuages épars à une hauteur de 5000 ft
averses à proximité

TAF: PGUM 211720Z 2118/2224 14007KT P6SM VCSH FEW018 SCT050

Observations et prévisions météorologiques de plus de 4000 aéroports (messages METAR et TAF).

Les stations disponibles sont représentées par des disques jaunes et rouges sur la carte.

Passer la souris dessus pour voir le nom de la station.

Cliquer dessus pour voir les observations et prévisions météorologiques.

Pour changer de carte: cliquez sur les boutons verts avec une croix noire pour zoomer, sur le bouton vert avec un tiret pour effectuer un zoom arrière, ou sur les flèches vertes pour les cartes adjacentes.


METAR-TAF: